sensor_id;sensor_type;location;lat;lon;timestamp;temperature;humidity
51476;DHT22;37554;50.362;7.568;2023-04-06T00:00:56;18.30;33.60
51476;DHT22;37554;50.362;7.568;2023-04-06T00:03:22;18.30;33.60
51476;DHT22;37554;50.362;7.568;2023-04-06T00:05:48;18.20;33.70
51476;DHT22;37554;50.362;7.568;2023-04-06T00:08:14;18.20;33.70
51476;DHT22;37554;50.362;7.568;2023-04-06T00:10:40;18.20;33.70
51476;DHT22;37554;50.362;7.568;2023-04-06T00:13:06;18.10;33.70
51476;DHT22;37554;50.362;7.568;2023-04-06T00:15:33;18.10;33.80
51476;DHT22;37554;50.362;7.568;2023-04-06T00:17:58;18.00;33.80
51476;DHT22;37554;50.362;7.568;2023-04-06T00:20:24;18.00;33.90
51476;DHT22;37554;50.362;7.568;2023-04-06T00:22:50;18.00;33.90
51476;DHT22;37554;50.362;7.568;2023-04-06T00:25:16;18.00;34.00
51476;DHT22;37554;50.362;7.568;2023-04-06T00:27:42;17.90;33.90
51476;DHT22;37554;50.362;7.568;2023-04-06T00:30:08;17.90;34.00
51476;DHT22;37554;50.362;7.568;2023-04-06T00:32:34;17.90;34.00
51476;DHT22;37554;50.362;7.568;2023-04-06T00:35:04;17.80;34.00
51476;DHT22;37554;50.362;7.568;2023-04-06T00:37:31;17.80;34.10
51476;DHT22;37554;50.362;7.568;2023-04-06T00:39:57;17.80;34.10
51476;DHT22;37554;50.362;7.568;2023-04-06T00:42:23;17.80;34.10
51476;DHT22;37554;50.362;7.568;2023-04-06T00:44:59;17.70;34.10
51476;DHT22;37554;50.362;7.568;2023-04-06T00:47:26;17.70;34.20
51476;DHT22;37554;50.362;7.568;2023-04-06T00:49:56;17.60;34.10
51476;DHT22;37554;50.362;7.568;2023-04-06T00:52:22;17.60;34.10
51476;DHT22;37554;50.362;7.568;2023-04-06T00:54:49;17.60;34.20
51476;DHT22;37554;50.362;7.568;2023-04-06T00:57:16;17.60;34.30
51476;DHT22;37554;50.362;7.568;2023-04-06T00:59:42;17.50;34.30
51476;DHT22;37554;50.362;7.568;2023-04-06T01:02:08;17.50;34.30
51476;DHT22;37554;50.362;7.568;2023-04-06T01:04:34;17.50;34.40
51476;DHT22;37554;50.362;7.568;2023-04-06T01:07:00;17.40;34.40
51476;DHT22;37554;50.362;7.568;2023-04-06T01:09:29;17.40;34.50
51476;DHT22;37554;50.362;7.568;2023-04-06T01:11:56;17.30;34.50
51476;DHT22;37554;50.362;7.568;2023-04-06T01:14:23;17.30;34.60
51476;DHT22;37554;50.362;7.568;2023-04-06T01:16:48;17.30;34.70
51476;DHT22;37554;50.362;7.568;2023-04-06T01:19:14;17.30;34.70
51476;DHT22;37554;50.362;7.568;2023-04-06T01:21:40;17.20;34.70
51476;DHT22;37554;50.362;7.568;2023-04-06T01:24:07;17.20;34.80
51476;DHT22;37554;50.362;7.568;2023-04-06T01:26:34;17.20;34.90
51476;DHT22;37554;50.362;7.568;2023-04-06T01:29:01;17.10;34.90
51476;DHT22;37554;50.362;7.568;2023-04-06T01:31:27;17.10;34.90
51476;DHT22;37554;50.362;7.568;2023-04-06T01:33:53;17.10;35.00
51476;DHT22;37554;50.362;7.568;2023-04-06T01:36:19;17.10;35.00
51476;DHT22;37554;50.362;7.568;2023-04-06T01:38:45;17.10;35.00
51476;DHT22;37554;50.362;7.568;2023-04-06T01:41:11;17.00;35.10
51476;DHT22;37554;50.362;7.568;2023-04-06T01:43:37;17.00;35.10
51476;DHT22;37554;50.362;7.568;2023-04-06T01:46:03;17.00;35.10
51476;DHT22;37554;50.362;7.568;2023-04-06T01:48:29;16.90;35.10
51476;DHT22;37554;50.362;7.568;2023-04-06T01:50:54;16.90;35.20
51476;DHT22;37554;50.362;7.568;2023-04-06T01:53:20;16.90;35.20
51476;DHT22;37554;50.362;7.568;2023-04-06T01:55:46;16.90;35.30
51476;DHT22;37554;50.362;7.568;2023-04-06T01:58:12;16.80;35.30
51476;DHT22;37554;50.362;7.568;2023-04-06T02:00:38;16.80;35.40
51476;DHT22;37554;50.362;7.568;2023-04-06T02:03:04;16.80;35.40
51476;DHT22;37554;50.362;7.568;2023-04-06T02:05:31;16.70;35.40
51476;DHT22;37554;50.362;7.568;2023-04-06T02:07:58;16.70;35.40
51476;DHT22;37554;50.362;7.568;2023-04-06T02:10:24;16.70;35.50
51476;DHT22;37554;50.362;7.568;2023-04-06T02:12:50;16.70;35.60
51476;DHT22;37554;50.362;7.568;2023-04-06T02:15:16;16.60;35.50
51476;DHT22;37554;50.362;7.568;2023-04-06T02:17:42;16.60;35.60
51476;DHT22;37554;50.362;7.568;2023-04-06T02:20:08;16.60;35.70
51476;DHT22;37554;50.362;7.568;2023-04-06T02:22:35;16.60;35.70
51476;DHT22;37554;50.362;7.568;2023-04-06T02:25:01;16.50;35.70
51476;DHT22;37554;50.362;7.568;2023-04-06T02:27:26;16.50;35.80
51476;DHT22;37554;50.362;7.568;2023-04-06T02:29:52;16.40;35.70
51476;DHT22;37554;50.362;7.568;2023-04-06T02:32:18;16.40;35.70
51476;DHT22;37554;50.362;7.568;2023-04-06T02:34:43;16.40;35.70
51476;DHT22;37554;50.362;7.568;2023-04-06T02:37:09;16.40;35.70
51476;DHT22;37554;50.362;7.568;2023-04-06T02:39:35;16.40;35.70
51476;DHT22;37554;50.362;7.568;2023-04-06T02:42:01;16.40;35.70
51476;DHT22;37554;50.362;7.568;2023-04-06T02:44:26;16.30;35.80
51476;DHT22;37554;50.362;7.568;2023-04-06T02:46:52;16.30;35.90
51476;DHT22;37554;50.362;7.568;2023-04-06T02:49:18;16.30;35.80
51476;DHT22;37554;50.362;7.568;2023-04-06T02:51:43;16.20;35.90
51476;DHT22;37554;50.362;7.568;2023-04-06T02:54:09;16.20;36.00
51476;DHT22;37554;50.362;7.568;2023-04-06T02:56:35;16.10;35.90
51476;DHT22;37554;50.362;7.568;2023-04-06T02:59:01;16.20;36.10
51476;DHT22;37554;50.362;7.568;2023-04-06T03:01:26;16.10;36.10
51476;DHT22;37554;50.362;7.568;2023-04-06T03:03:52;16.10;36.20
51476;DHT22;37554;50.362;7.568;2023-04-06T03:06:18;16.00;36.10
51476;DHT22;37554;50.362;7.568;2023-04-06T03:08:43;16.00;36.10
51476;DHT22;37554;50.362;7.568;2023-04-06T03:11:09;16.00;36.20
51476;DHT22;37554;50.362;7.568;2023-04-06T03:13:36;16.00;36.30
51476;DHT22;37554;50.362;7.568;2023-04-06T03:16:04;15.90;36.30
51476;DHT22;37554;50.362;7.568;2023-04-06T03:18:30;15.90;36.20
51476;DHT22;37554;50.362;7.568;2023-04-06T03:20:56;15.90;36.30
51476;DHT22;37554;50.362;7.568;2023-04-06T03:23:22;15.90;36.30
51476;DHT22;37554;50.362;7.568;2023-04-06T03:25:47;15.90;36.40
51476;DHT22;37554;50.362;7.568;2023-04-06T03:28:13;15.90;36.40
51476;DHT22;37554;50.362;7.568;2023-04-06T03:30:39;15.80;36.40
51476;DHT22;37554;50.362;7.568;2023-04-06T03:33:04;15.80;36.40
51476;DHT22;37554;50.362;7.568;2023-04-06T03:35:30;15.70;36.50
51476;DHT22;37554;50.362;7.568;2023-04-06T03:37:56;15.70;36.50
51476;DHT22;37554;50.362;7.568;2023-04-06T03:40:21;15.70;36.60
51476;DHT22;37554;50.362;7.568;2023-04-06T03:42:47;15.60;36.60
51476;DHT22;37554;50.362;7.568;2023-04-06T03:45:13;15.60;36.60
51476;DHT22;37554;50.362;7.568;2023-04-06T03:47:39;15.60;36.70
51476;DHT22;37554;50.362;7.568;2023-04-06T03:50:05;15.60;36.70
51476;DHT22;37554;50.362;7.568;2023-04-06T03:52:31;15.60;36.70
51476;DHT22;37554;50.362;7.568;2023-04-06T03:54:57;15.60;36.80
51476;DHT22;37554;50.362;7.568;2023-04-06T03:57:22;15.50;36.80
51476;DHT22;37554;50.362;7.568;2023-04-06T03:59:48;15.50;36.80
51476;DHT22;37554;50.362;7.568;2023-04-06T04:02:14;15.40;36.90
51476;DHT22;37554;50.362;7.568;2023-04-06T04:04:40;15.40;36.90
51476;DHT22;37554;50.362;7.568;2023-04-06T04:07:05;15.40;37.00
51476;DHT22;37554;50.362;7.568;2023-04-06T04:09:31;15.40;37.00
51476;DHT22;37554;50.362;7.568;2023-04-06T04:11:57;15.40;37.10
51476;DHT22;37554;50.362;7.568;2023-04-06T04:14:22;15.30;37.10
51476;DHT22;37554;50.362;7.568;2023-04-06T04:16:48;15.30;37.10
51476;DHT22;37554;50.362;7.568;2023-04-06T04:19:14;15.30;37.10
51476;DHT22;37554;50.362;7.568;2023-04-06T04:21:44;15.30;37.10
51476;DHT22;37554;50.362;7.568;2023-04-06T04:24:13;15.20;37.20
51476;DHT22;37554;50.362;7.568;2023-04-06T04:26:39;15.20;37.20
51476;DHT22;37554;50.362;7.568;2023-04-06T04:29:06;15.20;37.20
51476;DHT22;37554;50.362;7.568;2023-04-06T04:31:31;15.20;37.20
51476;DHT22;37554;50.362;7.568;2023-04-06T04:33:59;15.10;37.30
51476;DHT22;37554;50.362;7.568;2023-04-06T04:36:25;15.10;37.30
51476;DHT22;37554;50.362;7.568;2023-04-06T04:38:51;15.00;37.30
51476;DHT22;37554;50.362;7.568;2023-04-06T04:41:17;15.00;37.40
51476;DHT22;37554;50.362;7.568;2023-04-06T04:43:43;15.00;37.50
51476;DHT22;37554;50.362;7.568;2023-04-06T04:46:09;15.00;37.60
51476;DHT22;37554;50.362;7.568;2023-04-06T04:48:35;14.90;37.70
51476;DHT22;37554;50.362;7.568;2023-04-06T04:51:00;14.90;37.70
51476;DHT22;37554;50.362;7.568;2023-04-06T04:53:26;14.90;37.70
51476;DHT22;37554;50.362;7.568;2023-04-06T04:55:52;14.90;38.40
51476;DHT22;37554;50.362;7.568;2023-04-06T04:58:17;14.90;37.70
51476;DHT22;37554;50.362;7.568;2023-04-06T05:00:45;14.90;37.70
51476;DHT22;37554;50.362;7.568;2023-04-06T05:03:24;14.90;37.70
51476;DHT22;37554;50.362;7.568;2023-04-06T05:05:51;14.80;37.80
51476;DHT22;37554;50.362;7.568;2023-04-06T05:08:16;14.80;37.90
51476;DHT22;37554;50.362;7.568;2023-04-06T05:10:42;14.80;37.90
51476;DHT22;37554;50.362;7.568;2023-04-06T05:13:08;14.80;38.00
51476;DHT22;37554;50.362;7.568;2023-04-06T05:15:34;14.70;37.90
51476;DHT22;37554;50.362;7.568;2023-04-06T05:18:00;14.70;38.00
51476;DHT22;37554;50.362;7.568;2023-04-06T05:20:26;14.70;38.00
51476;DHT22;37554;50.362;7.568;2023-04-06T05:22:53;14.70;38.10
51476;DHT22;37554;50.362;7.568;2023-04-06T05:25:19;14.60;38.10
51476;DHT22;37554;50.362;7.568;2023-04-06T05:27:45;14.70;38.10
51476;DHT22;37554;50.362;7.568;2023-04-06T05:30:11;14.60;38.00
51476;DHT22;37554;50.362;7.568;2023-04-06T05:32:37;14.70;38.10
51476;DHT22;37554;50.362;7.568;2023-04-06T05:35:02;14.70;38.10
51476;DHT22;37554;50.362;7.568;2023-04-06T05:37:28;14.70;38.20
51476;DHT22;37554;50.362;7.568;2023-04-06T05:39:54;14.70;38.10
51476;DHT22;37554;50.362;7.568;2023-04-06T05:42:19;14.60;38.10
51476;DHT22;37554;50.362;7.568;2023-04-06T05:44:45;14.40;37.60
51476;DHT22;37554;50.362;7.568;2023-04-06T05:47:11;13.90;37.90
51476;DHT22;37554;50.362;7.568;2023-04-06T05:49:36;13.40;38.40
51476;DHT22;37554;50.362;7.568;2023-04-06T05:52:02;13.10;38.90
51476;DHT22;37554;50.362;7.568;2023-04-06T05:54:28;12.80;39.40
51476;DHT22;37554;50.362;7.568;2023-04-06T05:56:56;12.60;40.00
51476;DHT22;37554;50.362;7.568;2023-04-06T05:59:22;13.00;40.70
51476;DHT22;37554;50.362;7.568;2023-04-06T06:01:49;13.40;40.10
51476;DHT22;37554;50.362;7.568;2023-04-06T06:04:21;13.90;39.60
51476;DHT22;37554;50.362;7.568;2023-04-06T06:06:50;14.20;39.20
51476;DHT22;37554;50.362;7.568;2023-04-06T06:09:16;14.40;38.80
51476;DHT22;37554;50.362;7.568;2023-04-06T06:11:42;14.60;38.60
51476;DHT22;37554;50.362;7.568;2023-04-06T06:14:07;14.80;38.40
51476;DHT22;37554;50.362;7.568;2023-04-06T06:16:33;14.90;38.20
51476;DHT22;37554;50.362;7.568;2023-04-06T06:19:02;15.00;38.10
51476;DHT22;37554;50.362;7.568;2023-04-06T06:21:27;15.10;38.00
51476;DHT22;37554;50.362;7.568;2023-04-06T06:23:56;15.20;37.90
51476;DHT22;37554;50.362;7.568;2023-04-06T06:26:22;15.30;37.90
51476;DHT22;37554;50.362;7.568;2023-04-06T06:28:48;15.30;37.90
51476;DHT22;37554;50.362;7.568;2023-04-06T06:31:22;15.30;37.90
51476;DHT22;37554;50.362;7.568;2023-04-06T06:33:49;15.40;37.90
51476;DHT22;37554;50.362;7.568;2023-04-06T06:36:25;15.40;37.90
51476;DHT22;37554;50.362;7.568;2023-04-06T06:38:54;15.40;37.90
51476;DHT22;37554;50.362;7.568;2023-04-06T06:41:27;15.40;37.80
51476;DHT22;37554;50.362;7.568;2023-04-06T06:43:53;15.40;37.80
51476;DHT22;37554;50.362;7.568;2023-04-06T06:46:24;15.50;37.80
51476;DHT22;37554;50.362;7.568;2023-04-06T06:48:59;15.50;37.80
51476;DHT22;37554;50.362;7.568;2023-04-06T06:51:25;15.50;37.90
51476;DHT22;37554;50.362;7.568;2023-04-06T06:53:54;15.60;38.00
51476;DHT22;37554;50.362;7.568;2023-04-06T06:56:20;15.60;37.90
51476;DHT22;37554;50.362;7.568;2023-04-06T06:58:49;15.70;37.90
51476;DHT22;37554;50.362;7.568;2023-04-06T07:01:21;15.70;37.80
51476;DHT22;37554;50.362;7.568;2023-04-06T07:03:49;15.80;37.80
51476;DHT22;37554;50.362;7.568;2023-04-06T07:06:15;15.80;37.80
51476;DHT22;37554;50.362;7.568;2023-04-06T07:08:41;15.80;37.80
51476;DHT22;37554;50.362;7.568;2023-04-06T07:11:07;15.90;37.80
51476;DHT22;37554;50.362;7.568;2023-04-06T07:13:35;15.90;37.80
51476;DHT22;37554;50.362;7.568;2023-04-06T07:16:01;16.00;37.80
51476;DHT22;37554;50.362;7.568;2023-04-06T07:18:27;16.10;37.90
51476;DHT22;37554;50.362;7.568;2023-04-06T07:21:04;16.10;37.80
51476;DHT22;37554;50.362;7.568;2023-04-06T07:23:30;16.20;37.70
51476;DHT22;37554;50.362;7.568;2023-04-06T07:25:56;16.20;37.70
51476;DHT22;37554;50.362;7.568;2023-04-06T07:28:33;16.20;37.70
51476;DHT22;37554;50.362;7.568;2023-04-06T07:31:00;16.20;37.80
51476;DHT22;37554;50.362;7.568;2023-04-06T07:33:25;16.30;37.80
51476;DHT22;37554;50.362;7.568;2023-04-06T07:35:58;16.30;37.90
51476;DHT22;37554;50.362;7.568;2023-04-06T07:38:24;16.40;38.00
51476;DHT22;37554;50.362;7.568;2023-04-06T07:40:50;16.50;37.90
51476;DHT22;37554;50.362;7.568;2023-04-06T07:43:19;16.60;37.70
51476;DHT22;37554;50.362;7.568;2023-04-06T07:45:48;16.70;37.60
51476;DHT22;37554;50.362;7.568;2023-04-06T07:48:17;16.70;37.40
51476;DHT22;37554;50.362;7.568;2023-04-06T07:50:43;16.80;37.30
51476;DHT22;37554;50.362;7.568;2023-04-06T07:53:09;16.90;37.10
51476;DHT22;37554;50.362;7.568;2023-04-06T07:55:38;17.10;37.10
51476;DHT22;37554;50.362;7.568;2023-04-06T07:58:10;17.20;37.00
51476;DHT22;37554;50.362;7.568;2023-04-06T08:00:39;17.30;36.90
51476;DHT22;37554;50.362;7.568;2023-04-06T08:03:08;17.50;36.80
51476;DHT22;37554;50.362;7.568;2023-04-06T08:05:33;17.60;36.60
51476;DHT22;37554;50.362;7.568;2023-04-06T08:07:59;17.70;36.40
51476;DHT22;37554;50.362;7.568;2023-04-06T08:10:25;17.90;36.30
51476;DHT22;37554;50.362;7.568;2023-04-06T08:13:00;18.10;36.10
51476;DHT22;37554;50.362;7.568;2023-04-06T08:15:29;18.30;35.90
51476;DHT22;37554;50.362;7.568;2023-04-06T08:17:54;18.60;35.70
51476;DHT22;37554;50.362;7.568;2023-04-06T08:20:22;18.80;35.60
51476;DHT22;37554;50.362;7.568;2023-04-06T08:22:48;19.10;35.40
51476;DHT22;37554;50.362;7.568;2023-04-06T08:25:17;19.30;35.10
51476;DHT22;37554;50.362;7.568;2023-04-06T08:27:43;19.50;34.90
51476;DHT22;37554;50.362;7.568;2023-04-06T08:30:17;19.80;34.70
51476;DHT22;37554;50.362;7.568;2023-04-06T08:32:47;20.10;34.50
51476;DHT22;37554;50.362;7.568;2023-04-06T08:35:16;20.40;34.30
51476;DHT22;37554;50.362;7.568;2023-04-06T08:37:54;20.60;34.00
51476;DHT22;37554;50.362;7.568;2023-04-06T08:40:22;20.90;33.80
51476;DHT22;37554;50.362;7.568;2023-04-06T08:42:56;21.20;33.60
51476;DHT22;37554;50.362;7.568;2023-04-06T08:45:27;21.50;33.40
51476;DHT22;37554;50.362;7.568;2023-04-06T08:47:54;21.70;33.10
51476;DHT22;37554;50.362;7.568;2023-04-06T08:50:27;22.00;32.90
51476;DHT22;37554;50.362;7.568;2023-04-06T08:53:14;22.40;32.50
51476;DHT22;37554;50.362;7.568;2023-04-06T08:55:50;22.70;32.20
51476;DHT22;37554;50.362;7.568;2023-04-06T08:58:19;23.00;32.00
51476;DHT22;37554;50.362;7.568;2023-04-06T09:00:50;23.20;31.80
51476;DHT22;37554;50.362;7.568;2023-04-06T09:03:17;23.40;31.60
51476;DHT22;37554;50.362;7.568;2023-04-06T09:05:43;23.50;31.40
51476;DHT22;37554;50.362;7.568;2023-04-06T09:08:10;23.60;31.40
51476;DHT22;37554;50.362;7.568;2023-04-06T09:10:53;23.60;31.40
51476;DHT22;37554;50.362;7.568;2023-04-06T09:13:19;23.60;31.20
51476;DHT22;37554;50.362;7.568;2023-04-06T09:16:04;23.80;31.20
51476;DHT22;37554;50.362;7.568;2023-04-06T09:18:32;24.00;31.00
51476;DHT22;37554;50.362;7.568;2023-04-06T09:21:10;24.20;30.90
51476;DHT22;37554;50.362;7.568;2023-04-06T09:23:37;24.40;30.80
51476;DHT22;37554;50.362;7.568;2023-04-06T09:26:19;24.50;30.70
51476;DHT22;37554;50.362;7.568;2023-04-06T09:28:49;24.50;30.30
51476;DHT22;37554;50.362;7.568;2023-04-06T09:31:21;24.60;30.50
51476;DHT22;37554;50.362;7.568;2023-04-06T09:33:50;24.70;30.50
51476;DHT22;37554;50.362;7.568;2023-04-06T09:36:40;24.80;30.40
51476;DHT22;37554;50.362;7.568;2023-04-06T09:39:14;24.90;30.10
51476;DHT22;37554;50.362;7.568;2023-04-06T09:41:51;25.00;30.20
51476;DHT22;37554;50.362;7.568;2023-04-06T09:44:17;25.10;30.10
51476;DHT22;37554;50.362;7.568;2023-04-06T09:46:45;25.40;30.20
51476;DHT22;37554;50.362;7.568;2023-04-06T09:49:12;25.60;30.00
51476;DHT22;37554;50.362;7.568;2023-04-06T09:51:59;25.80;29.90
51476;DHT22;37554;50.362;7.568;2023-04-06T09:54:51;26.00;29.40
51476;DHT22;37554;50.362;7.568;2023-04-06T09:57:28;26.00;29.20
51476;DHT22;37554;50.362;7.568;2023-04-06T10:00:03;26.10;29.40
51476;DHT22;37554;50.362;7.568;2023-04-06T10:08:10;26.60;28.80
51476;DHT22;37554;50.362;7.568;2023-04-06T10:10:37;26.90;28.80
51476;DHT22;37554;50.362;7.568;2023-04-06T10:13:07;27.10;28.60
51476;DHT22;37554;50.362;7.568;2023-04-06T10:15:44;27.40;28.40
51476;DHT22;37554;50.362;7.568;2023-04-06T10:18:10;27.60;28.10
51476;DHT22;37554;50.362;7.568;2023-04-06T10:21:04;27.80;28.20
51476;DHT22;37554;50.362;7.568;2023-04-06T10:26:17;28.10;27.90
51476;DHT22;37554;50.362;7.568;2023-04-06T10:28:46;28.20;27.90
51476;DHT22;37554;50.362;7.568;2023-04-06T10:31:13;28.30;27.90
51476;DHT22;37554;50.362;7.568;2023-04-06T10:33:39;28.40;27.70
51476;DHT22;37554;50.362;7.568;2023-04-06T10:36:53;28.50;27.60
51476;DHT22;37554;50.362;7.568;2023-04-06T10:39:24;28.50;27.10
51476;DHT22;37554;50.362;7.568;2023-04-06T10:41:51;28.40;27.50
51476;DHT22;37554;50.362;7.568;2023-04-06T10:44:20;28.30;27.40
51476;DHT22;37554;50.362;7.568;2023-04-06T10:46:58;28.30;27.50
51476;DHT22;37554;50.362;7.568;2023-04-06T10:49:27;28.20;27.30
51476;DHT22;37554;50.362;7.568;2023-04-06T10:51:54;28.40;27.50
51476;DHT22;37554;50.362;7.568;2023-04-06T10:54:21;28.60;27.30
51476;DHT22;37554;50.362;7.568;2023-04-06T10:56:49;28.80;27.20
51476;DHT22;37554;50.362;7.568;2023-04-06T10:59:21;29.00;27.10
51476;DHT22;37554;50.362;7.568;2023-04-06T11:01:51;29.30;26.90
51476;DHT22;37554;50.362;7.568;2023-04-06T11:04:17;29.80;26.70
51476;DHT22;37554;50.362;7.568;2023-04-06T11:06:47;29.90;26.50
51476;DHT22;37554;50.362;7.568;2023-04-06T11:09:58;30.20;26.40
51476;DHT22;37554;50.362;7.568;2023-04-06T11:12:22;31.00;25.80
51476;DHT22;37554;50.362;7.568;2023-04-06T11:15:00;32.10;25.60
51476;DHT22;37554;50.362;7.568;2023-04-06T11:17:36;32.70;25.00
51476;DHT22;37554;50.362;7.568;2023-04-06T11:20:22;33.40;25.50
51476;DHT22;37554;50.362;7.568;2023-04-06T11:22:52;33.60;25.20
51476;DHT22;37554;50.362;7.568;2023-04-06T11:25:23;33.70;25.00
51476;DHT22;37554;50.362;7.568;2023-04-06T11:27:52;33.80;24.90
51476;DHT22;37554;50.362;7.568;2023-04-06T11:30:21;33.70;24.90
51476;DHT22;37554;50.362;7.568;2023-04-06T11:32:47;33.60;25.00
51476;DHT22;37554;50.362;7.568;2023-04-06T11:35:23;33.60;25.10
51476;DHT22;37554;50.362;7.568;2023-04-06T11:37:50;33.40;24.80
51476;DHT22;37554;50.362;7.568;2023-04-06T11:40:21;33.00;25.10
51476;DHT22;37554;50.362;7.568;2023-04-06T11:42:52;32.50;25.10
51476;DHT22;37554;50.362;7.568;2023-04-06T11:45:19;32.20;25.30
51476;DHT22;37554;50.362;7.568;2023-04-06T11:47:44;32.00;25.50
51476;DHT22;37554;50.362;7.568;2023-04-06T11:50:12;31.90;25.70
51476;DHT22;37554;50.362;7.568;2023-04-06T11:52:39;30.90;24.80
51476;DHT22;37554;50.362;7.568;2023-04-06T11:55:18;29.50;24.60
51476;DHT22;37554;50.362;7.568;2023-04-06T11:57:44;28.20;24.20
51476;DHT22;37554;50.362;7.568;2023-04-06T12:00:11;27.30;24.90
51476;DHT22;37554;50.362;7.568;2023-04-06T12:02:38;26.50;25.00
51476;DHT22;37554;50.362;7.568;2023-04-06T12:05:05;25.90;25.30
51476;DHT22;37554;50.362;7.568;2023-04-06T12:07:32;25.50;26.30
51476;DHT22;37554;50.362;7.568;2023-04-06T12:09:59;25.20;25.80
51476;DHT22;37554;50.362;7.568;2023-04-06T12:12:25;24.90;26.10
51476;DHT22;37554;50.362;7.568;2023-04-06T12:14:50;24.70;25.80
51476;DHT22;37554;50.362;7.568;2023-04-06T12:17:17;24.40;26.10
51476;DHT22;37554;50.362;7.568;2023-04-06T12:19:43;24.30;26.60
51476;DHT22;37554;50.362;7.568;2023-04-06T12:22:09;24.50;26.60
51476;DHT22;37554;50.362;7.568;2023-04-06T12:24:35;24.90;26.50
51476;DHT22;37554;50.362;7.568;2023-04-06T12:27:00;25.20;26.40
51476;DHT22;37554;50.362;7.568;2023-04-06T12:29:26;25.40;26.40
51476;DHT22;37554;50.362;7.568;2023-04-06T12:31:52;25.50;26.40
51476;DHT22;37554;50.362;7.568;2023-04-06T12:34:18;25.70;26.60
51476;DHT22;37554;50.362;7.568;2023-04-06T12:36:44;25.70;26.60
51476;DHT22;37554;50.362;7.568;2023-04-06T12:39:10;25.80;26.80
51476;DHT22;37554;50.362;7.568;2023-04-06T12:41:36;25.90;27.00
51476;DHT22;37554;50.362;7.568;2023-04-06T12:44:02;26.00;27.20
51476;DHT22;37554;50.362;7.568;2023-04-06T12:46:29;26.00;27.30
51476;DHT22;37554;50.362;7.568;2023-04-06T12:48:58;26.10;27.40
51476;DHT22;37554;50.362;7.568;2023-04-06T12:51:27;26.20;27.60
51476;DHT22;37554;50.362;7.568;2023-04-06T12:53:54;26.30;27.60
51476;DHT22;37554;50.362;7.568;2023-04-06T12:56:20;26.30;27.70
51476;DHT22;37554;50.362;7.568;2023-04-06T12:58:50;26.30;27.80
51476;DHT22;37554;50.362;7.568;2023-04-06T13:01:16;26.30;27.80
51476;DHT22;37554;50.362;7.568;2023-04-06T13:03:42;26.40;27.90
51476;DHT22;37554;50.362;7.568;2023-04-06T13:06:09;26.40;28.00
51476;DHT22;37554;50.362;7.568;2023-04-06T13:08:35;26.40;28.10
51476;DHT22;37554;50.362;7.568;2023-04-06T13:11:05;26.40;28.10
51476;DHT22;37554;50.362;7.568;2023-04-06T13:13:32;26.40;28.10
51476;DHT22;37554;50.362;7.568;2023-04-06T13:16:03;26.40;28.10
51476;DHT22;37554;50.362;7.568;2023-04-06T13:18:29;26.40;28.00
51476;DHT22;37554;50.362;7.568;2023-04-06T13:20:57;26.40;28.00
51476;DHT22;37554;50.362;7.568;2023-04-06T13:23:23;26.50;28.00
51476;DHT22;37554;50.362;7.568;2023-04-06T13:25:59;26.50;28.00
51476;DHT22;37554;50.362;7.568;2023-04-06T13:28:26;26.50;28.00
51476;DHT22;37554;50.362;7.568;2023-04-06T13:30:52;26.60;28.20
51476;DHT22;37554;50.362;7.568;2023-04-06T13:33:17;26.60;28.20
51476;DHT22;37554;50.362;7.568;2023-04-06T13:35:46;26.60;28.20
51476;DHT22;37554;50.362;7.568;2023-04-06T13:38:13;26.60;28.30
51476;DHT22;37554;50.362;7.568;2023-04-06T13:40:39;26.60;28.30
51476;DHT22;37554;50.362;7.568;2023-04-06T13:43:06;26.60;28.40
51476;DHT22;37554;50.362;7.568;2023-04-06T13:45:32;26.60;28.50
51476;DHT22;37554;50.362;7.568;2023-04-06T13:47:59;26.50;28.50
51476;DHT22;37554;50.362;7.568;2023-04-06T13:50:28;26.50;28.60
51476;DHT22;37554;50.362;7.568;2023-04-06T13:52:54;26.40;28.60
51476;DHT22;37554;50.362;7.568;2023-04-06T13:55:20;26.30;28.70
51476;DHT22;37554;50.362;7.568;2023-04-06T13:57:45;26.20;28.70
51476;DHT22;37554;50.362;7.568;2023-04-06T14:00:11;26.20;28.80
51476;DHT22;37554;50.362;7.568;2023-04-06T14:02:38;26.10;28.80
51476;DHT22;37554;50.362;7.568;2023-04-06T14:05:04;26.00;28.90
51476;DHT22;37554;50.362;7.568;2023-04-06T14:07:30;26.00;28.90
51476;DHT22;37554;50.362;7.568;2023-04-06T14:09:56;25.90;29.00
51476;DHT22;37554;50.362;7.568;2023-04-06T14:12:21;25.80;29.10
51476;DHT22;37554;50.362;7.568;2023-04-06T14:14:47;25.80;29.10
51476;DHT22;37554;50.362;7.568;2023-04-06T14:17:12;25.80;29.20
51476;DHT22;37554;50.362;7.568;2023-04-06T14:19:38;25.80;29.40
51476;DHT22;37554;50.362;7.568;2023-04-06T14:22:04;25.70;29.40
51476;DHT22;37554;50.362;7.568;2023-04-06T14:24:30;25.60;29.50
51476;DHT22;37554;50.362;7.568;2023-04-06T14:26:56;25.60;29.60
51476;DHT22;37554;50.362;7.568;2023-04-06T14:29:23;25.60;29.60
51476;DHT22;37554;50.362;7.568;2023-04-06T14:31:49;25.50;29.50
51476;DHT22;37554;50.362;7.568;2023-04-06T14:34:14;25.50;29.60
51476;DHT22;37554;50.362;7.568;2023-04-06T14:36:43;25.40;29.60
51476;DHT22;37554;50.362;7.568;2023-04-06T14:39:08;25.40;29.70
51476;DHT22;37554;50.362;7.568;2023-04-06T14:41:35;25.30;29.60
51476;DHT22;37554;50.362;7.568;2023-04-06T14:44:01;25.30;29.70
51476;DHT22;37554;50.362;7.568;2023-04-06T14:46:28;25.30;29.70
51476;DHT22;37554;50.362;7.568;2023-04-06T14:48:57;25.30;29.80
51476;DHT22;37554;50.362;7.568;2023-04-06T14:51:25;25.20;29.70
51476;DHT22;37554;50.362;7.568;2023-04-06T14:53:52;25.20;29.90
51476;DHT22;37554;50.362;7.568;2023-04-06T14:56:22;25.10;29.90
51476;DHT22;37554;50.362;7.568;2023-04-06T14:58:49;25.10;30.00
51476;DHT22;37554;50.362;7.568;2023-04-06T15:01:17;25.00;30.60
51476;DHT22;37554;50.362;7.568;2023-04-06T15:03:43;24.90;30.00
51476;DHT22;37554;50.362;7.568;2023-04-06T15:06:13;24.90;30.00
51476;DHT22;37554;50.362;7.568;2023-04-06T15:08:41;24.90;30.20
51476;DHT22;37554;50.362;7.568;2023-04-06T15:11:07;24.80;30.20
51476;DHT22;37554;50.362;7.568;2023-04-06T15:13:32;24.80;30.20
51476;DHT22;37554;50.362;7.568;2023-04-06T15:15:58;24.80;30.30
51476;DHT22;37554;50.362;7.568;2023-04-06T15:18:23;24.70;30.30
51476;DHT22;37554;50.362;7.568;2023-04-06T15:20:49;24.70;30.40
51476;DHT22;37554;50.362;7.568;2023-04-06T15:23:16;24.60;30.30
51476;DHT22;37554;50.362;7.568;2023-04-06T15:25:41;24.60;30.40
51476;DHT22;37554;50.362;7.568;2023-04-06T15:28:07;24.60;30.40
51476;DHT22;37554;50.362;7.568;2023-04-06T15:30:33;24.50;30.40
51476;DHT22;37554;50.362;7.568;2023-04-06T15:33:00;24.50;30.40
51476;DHT22;37554;50.362;7.568;2023-04-06T15:35:27;24.50;30.50
51476;DHT22;37554;50.362;7.568;2023-04-06T15:37:54;24.50;30.50
51476;DHT22;37554;50.362;7.568;2023-04-06T15:40:20;24.50;30.70
51476;DHT22;37554;50.362;7.568;2023-04-06T15:42:45;24.40;30.80